createdAt,value
2023-01-17T00:01:18.615Z,95156.56
2023-01-17T00:04:10.827Z,95158.50
2023-01-17T00:07:01.629Z,95170.78
2023-01-17T00:09:52.200Z,95179.25
2023-01-17T00:12:29.003Z,95175.78
2023-01-17T00:15:02.378Z,95181.28
2023-01-17T00:17:35.436Z,95181.31
2023-01-17T00:20:31.686Z,95183.91
2023-01-17T00:23:25.281Z,95187.50
2023-01-17T00:26:04.794Z,95201.72
2023-01-17T00:28:39.218Z,95200.28
2023-01-17T00:31:14.746Z,95202.63
2023-01-17T00:33:46.754Z,95204.41
2023-01-17T00:36:20.055Z,95199.19
2023-01-17T00:38:51.987Z,95198.53
2023-01-17T00:41:23.931Z,95202.94
2023-01-17T00:44:14.351Z,95211.91
2023-01-17T00:47:04.874Z,95217.34
2023-01-17T00:49:55.247Z,95223.50
2023-01-17T00:52:47.069Z,95214.41
2023-01-17T00:55:37.419Z,95221.78
2023-01-17T00:58:28.259Z,95219.31
2023-01-17T01:01:18.928Z,95226.72
2023-01-17T01:04:09.704Z,95222.91
2023-01-17T01:07:00.285Z,95229.56
2023-01-17T01:09:52.327Z,95239.06
2023-01-17T01:12:42.913Z,95238.34
2023-01-17T01:15:33.783Z,95235.47
2023-01-17T01:18:25.221Z,95236.91
2023-01-17T01:21:21.792Z,95247.19
2023-01-17T01:24:12.520Z,95249.13
2023-01-17T01:27:04.450Z,95248.56
2023-01-17T01:29:55.039Z,95251.91
2023-01-17T01:32:45.599Z,95257.94
2023-01-17T01:35:18.875Z,95270.63
2023-01-17T01:37:52.000Z,95267.44
2023-01-17T01:40:25.022Z,95267.56
2023-01-17T01:43:05.658Z,95267.50
2023-01-17T01:45:38.977Z,95273.50
2023-01-17T01:48:32.440Z,95277.16
2023-01-17T01:51:09.754Z,95276.59
2023-01-17T01:53:48.274Z,95280.00
2023-01-17T01:56:23.516Z,95271.69
2023-01-17T01:58:59.988Z,95271.44
2023-01-17T02:01:33.309Z,95262.94
2023-01-17T02:04:09.933Z,95265.75
2023-01-17T02:06:48.546Z,95264.06
2023-01-17T02:09:21.883Z,95264.94
2023-01-17T02:11:54.993Z,95265.59
2023-01-17T02:14:29.312Z,95257.22
2023-01-17T02:17:16.349Z,95257.56
2023-01-17T02:20:40.448Z,95260.16
2023-01-17T02:24:24.745Z,95260.03
2023-01-17T02:27:17.630Z,95254.97
2023-01-17T02:30:21.811Z,95255.78
2023-01-17T02:33:08.723Z,95261.47
2023-01-17T02:35:50.347Z,95268.31
2023-01-17T02:38:37.693Z,95264.66
2023-01-17T02:41:18.268Z,95260.03
2023-01-17T02:43:53.401Z,95253.31
2023-01-17T02:46:27.745Z,95253.38
2023-01-17T02:49:01.486Z,95259.81
2023-01-17T02:52:05.803Z,95266.00
2023-01-17T02:55:04.203Z,95258.97
2023-01-17T02:58:07.135Z,95255.97
2023-01-17T03:00:54.398Z,95257.63
2023-01-17T03:03:34.929Z,95257.56
2023-01-17T03:06:13.574Z,95256.03
2023-01-17T03:08:48.566Z,95255.72
2023-01-17T03:11:21.893Z,95248.59
2023-01-17T03:13:57.189Z,95241.97
2023-01-17T03:16:33.389Z,95241.97
2023-01-17T03:19:09.795Z,95244.38
2023-01-17T03:21:43.001Z,95253.44
2023-01-17T03:24:16.175Z,95257.56
2023-01-17T03:26:49.200Z,95250.78
2023-01-17T03:29:24.026Z,95254.19
2023-01-17T03:31:57.053Z,95257.50
2023-01-17T03:34:31.447Z,95258.09
2023-01-17T03:37:04.535Z,95256.44
2023-01-17T03:39:37.521Z,95252.06
2023-01-17T03:42:10.484Z,95259.75
2023-01-17T03:44:43.684Z,95265.66
2023-01-17T03:47:16.705Z,95260.69
2023-01-17T03:49:51.012Z,95260.03
2023-01-17T03:52:24.026Z,95263.72
2023-01-17T03:54:57.039Z,95267.69
2023-01-17T03:57:30.062Z,95268.91
2023-01-17T04:00:03.163Z,95262.28
2023-01-17T04:02:36.490Z,95258.16
2023-01-17T04:05:11.252Z,95260.63
2023-01-17T04:07:44.287Z,95260.69
2023-01-17T04:10:17.515Z,95264.81
2023-01-17T04:12:50.462Z,95263.34
2023-01-17T04:15:23.472Z,95264.94
2023-01-17T04:17:56.728Z,95254.13
2023-01-17T04:20:35.150Z,95254.03
2023-01-17T04:23:08.827Z,95249.78
2023-01-17T04:25:41.852Z,95248.94
2023-01-17T04:28:15.137Z,95246.63
2023-01-17T04:30:48.110Z,95248.09
2023-01-17T04:33:21.192Z,95251.69
2023-01-17T04:35:55.639Z,95247.78
2023-01-17T04:38:28.623Z,95254.47
2023-01-17T04:41:01.681Z,95286.19
2023-01-17T04:43:34.948Z,95298.56
2023-01-17T04:46:10.135Z,95295.34
2023-01-17T04:48:43.267Z,95299.44
2023-01-17T04:51:17.660Z,95300.75
2023-01-17T04:53:50.660Z,95296.72
2023-01-17T04:56:23.786Z,95289.88
2023-01-17T04:58:58.347Z,95281.75
2023-01-17T05:01:31.390Z,95281.31
2023-01-17T05:04:04.533Z,95285.16
2023-01-17T05:06:38.894Z,95284.88
2023-01-17T05:09:12.088Z,95296.16
2023-01-17T05:11:45.096Z,95288.97
2023-01-17T05:14:18.146Z,95291.25
2023-01-17T05:16:53.440Z,95286.78
2023-01-17T05:19:27.897Z,95283.31
2023-01-17T05:22:04.025Z,95288.31
2023-01-17T05:24:37.374Z,95292.41
2023-01-17T05:27:10.820Z,95294.84
2023-01-17T05:29:43.863Z,95289.78
2023-01-17T05:32:16.831Z,95286.91
2023-01-17T05:34:50.992Z,95289.34
2023-01-17T05:37:25.387Z,95291.22
2023-01-17T05:39:58.370Z,95298.69
2023-01-17T05:42:31.321Z,95293.50
2023-01-17T05:45:04.541Z,95294.66
2023-01-17T05:47:37.510Z,95297.41
2023-01-17T05:50:12.266Z,95289.91
2023-01-17T05:52:53.476Z,95283.88
2023-01-17T05:55:28.035Z,95280.66
2023-01-17T05:58:01.700Z,95288.19
2023-01-17T06:00:34.951Z,95292.38
2023-01-17T06:03:07.977Z,95288.19
2023-01-17T06:05:41.830Z,95281.31
2023-01-17T06:08:16.220Z,95289.97
2023-01-17T06:10:49.295Z,95283.84
2023-01-17T06:13:22.282Z,95277.72
2023-01-17T06:15:57.711Z,95276.63
2023-01-17T06:18:32.158Z,95268.56
2023-01-17T06:21:05.402Z,95260.69
2023-01-17T06:23:39.980Z,95259.84
2023-01-17T06:26:12.975Z,95256.53
2023-01-17T06:28:45.915Z,95260.63
2023-01-17T06:31:18.983Z,95256.84
2023-01-17T06:33:52.068Z,95264.41
2023-01-17T06:36:25.193Z,95251.94
2023-01-17T06:38:59.608Z,95248.25
2023-01-17T06:41:32.579Z,95252.56
2023-01-17T06:44:07.588Z,95255.44
2023-01-17T06:46:40.831Z,95251.22
2023-01-17T06:49:13.839Z,95258.75
2023-01-17T06:51:47.045Z,95253.44
2023-01-17T06:54:21.410Z,95250.06
2023-01-17T06:56:54.607Z,95252.66
2023-01-17T06:59:27.594Z,95259.38
2023-01-17T07:02:00.654Z,95259.38
2023-01-17T07:04:35.520Z,95266.22
2023-01-17T07:07:08.481Z,95270.72
2023-01-17T07:09:43.905Z,95263.78
2023-01-17T07:12:16.924Z,95260.63
2023-01-17T07:14:49.910Z,95255.03
2023-01-17T07:17:22.878Z,95250.97
2023-01-17T07:19:55.868Z,95253.16
2023-01-17T07:22:28.897Z,95245.16
2023-01-17T07:25:03.277Z,95241.78
2023-01-17T07:27:36.267Z,95240.22
2023-01-17T07:30:11.236Z,95235.19
2023-01-17T07:32:44.228Z,95232.94
2023-01-17T07:35:17.381Z,95229.38
2023-01-17T07:37:51.326Z,95227.66
2023-01-17T07:40:25.744Z,95220.91
2023-01-17T07:43:02.653Z,95221.28
2023-01-17T07:45:35.633Z,95223.81
2023-01-17T07:48:08.642Z,95220.41
2023-01-17T07:50:41.666Z,95212.78
2023-01-17T07:53:15.153Z,95223.91
2023-01-17T07:55:49.586Z,95220.06
2023-01-17T07:58:22.697Z,95212.66
2023-01-17T08:00:55.775Z,95209.19
2023-01-17T08:03:32.158Z,95208.53
2023-01-17T08:06:05.680Z,95207.91
2023-01-17T08:08:38.635Z,95203.44
2023-01-17T08:11:13.055Z,95202.59
2023-01-17T08:13:46.045Z,95199.97
2023-01-17T08:16:19.356Z,95201.13
2023-01-17T08:18:52.796Z,95205.59
2023-01-17T08:21:25.983Z,95210.44
2023-01-17T08:23:58.992Z,95208.69
2023-01-17T08:26:33.302Z,95217.31
2023-01-17T08:29:06.957Z,95215.09
2023-01-17T08:31:39.919Z,95210.91
2023-01-17T08:34:14.143Z,95216.19
2023-01-17T08:36:48.019Z,95222.16
2023-01-17T08:39:22.445Z,95221.94
2023-01-17T08:41:57.341Z,95226.22
2023-01-17T08:44:30.325Z,95228.94
2023-01-17T08:47:03.251Z,95218.66
2023-01-17T08:49:36.201Z,95223.16
2023-01-17T08:52:09.342Z,95214.69
2023-01-17T08:54:42.260Z,95213.97
2023-01-17T08:57:16.677Z,95213.53
2023-01-17T08:59:49.653Z,95213.41
2023-01-17T09:02:24.252Z,95218.81
2023-01-17T09:04:57.160Z,95212.59
2023-01-17T09:07:30.086Z,95211.28
2023-01-17T09:10:03.013Z,95210.44
2023-01-17T09:12:37.692Z,95207.50
2023-01-17T09:15:14.612Z,95206.56
2023-01-17T09:17:48.052Z,95209.69
2023-01-17T09:20:21.022Z,95207.41
2023-01-17T09:22:54.048Z,95199.81
2023-01-17T09:25:27.535Z,95197.25
2023-01-17T09:28:01.850Z,95188.59
2023-01-17T09:30:34.888Z,95190.28
2023-01-17T09:33:07.928Z,95186.78
2023-01-17T09:35:41.120Z,95179.84
2023-01-17T09:38:14.781Z,95178.75
2023-01-17T09:40:49.515Z,95176.91
2023-01-17T09:43:34.082Z,95171.91
2023-01-17T09:46:14.854Z,95169.00
2023-01-17T09:48:48.602Z,95157.38
2023-01-17T09:51:24.733Z,95168.19
2023-01-17T09:53:57.803Z,95154.06
2023-01-17T09:56:36.870Z,95152.91
2023-01-17T09:59:35.622Z,95156.59
2023-01-17T10:02:35.033Z,95157.47
2023-01-17T10:05:33.119Z,95145.97
2023-01-17T10:08:20.107Z,95136.91
2023-01-17T10:11:11.257Z,95140.59
2023-01-17T10:13:52.145Z,95136.38
2023-01-17T10:16:37.858Z,95129.94
2023-01-17T10:19:34.307Z,95123.84
2023-01-17T10:22:32.490Z,95127.69
2023-01-17T10:25:27.505Z,95118.84
2023-01-17T10:28:05.973Z,95122.16
2023-01-17T10:30:45.072Z,95119.94
2023-01-17T10:33:23.238Z,95116.66
2023-01-17T10:35:59.085Z,95119.19
2023-01-17T10:38:35.598Z,95113.19
2023-01-17T10:41:16.225Z,95104.47
2023-01-17T10:44:01.796Z,95115.88
2023-01-17T10:46:40.897Z,95104.75
2023-01-17T10:49:20.294Z,95107.00
2023-01-17T10:52:08.560Z,95102.19
2023-01-17T10:54:55.044Z,95092.31
2023-01-17T10:57:29.259Z,95086.09
2023-01-17T11:00:02.276Z,95080.66
2023-01-17T11:02:49.558Z,95079.28
2023-01-17T11:05:28.754Z,95075.53
2023-01-17T11:08:04.067Z,95076.41
2023-01-17T11:10:41.325Z,95065.63
2023-01-17T11:13:33.183Z,95065.47
2023-01-17T11:16:11.169Z,95054.56
2023-01-17T11:18:44.275Z,95066.78
2023-01-17T11:21:23.221Z,95055.84
2023-01-17T11:23:57.637Z,95063.78
2023-01-17T11:26:33.836Z,95071.81
2023-01-17T11:29:24.521Z,95059.28
2023-01-17T11:31:57.598Z,95049.34
2023-01-17T11:34:32.024Z,95045.78
2023-01-17T11:37:20.838Z,95053.13
2023-01-17T11:40:09.279Z,95044.72
2023-01-17T11:42:42.269Z,95028.38
2023-01-17T11:45:26.632Z,95018.41
2023-01-17T11:48:21.938Z,95025.69
2023-01-17T11:50:59.332Z,95023.47
2023-01-17T11:53:38.504Z,95027.94
2023-01-17T11:56:23.449Z,95024.09
2023-01-17T11:59:28.546Z,95015.75
2023-01-17T12:02:37.323Z,95003.47
2023-01-17T12:05:24.795Z,94997.47
2023-01-17T12:08:11.050Z,94995.00
2023-01-17T12:10:57.801Z,94985.63
2023-01-17T12:14:02.895Z,94983.50
2023-01-17T12:17:02.030Z,94976.94
2023-01-17T12:19:54.322Z,94984.97
2023-01-17T12:22:49.514Z,94989.31
2023-01-17T12:25:30.199Z,94986.31
2023-01-17T12:28:44.596Z,94982.00
2023-01-17T12:31:30.960Z,94982.72
2023-01-17T12:34:20.582Z,94982.34
2023-01-17T12:37:00.332Z,94963.28
2023-01-17T12:39:40.595Z,94953.91
2023-01-17T12:42:18.487Z,94943.47
2023-01-17T12:44:59.570Z,94945.03
2023-01-17T12:47:36.458Z,94946.25
2023-01-17T12:50:27.155Z,94944.16
2023-01-17T12:53:06.535Z,94940.72
2023-01-17T12:55:49.830Z,94934.97
2023-01-17T12:58:29.162Z,94931.38
2023-01-17T13:01:08.568Z,94917.53
2023-01-17T13:03:56.102Z,94908.75
2023-01-17T13:06:50.779Z,94907.94
2023-01-17T13:09:24.806Z,94889.50
2023-01-17T13:12:04.116Z,94885.72
2023-01-17T13:14:37.162Z,94881.91
2023-01-17T13:17:28.329Z,94882.25
2023-01-17T13:20:09.824Z,94885.47
2023-01-17T13:22:44.129Z,94884.78
2023-01-17T13:25:36.125Z,94879.47
2023-01-17T13:28:23.941Z,94878.19
2023-01-17T13:31:20.542Z,94880.00
2023-01-17T13:34:33.752Z,94883.09
2023-01-17T13:37:33.688Z,94883.94
2023-01-17T13:40:35.279Z,94873.63
2023-01-17T13:43:15.385Z,94879.44
2023-01-17T13:45:54.605Z,94874.66
2023-01-17T13:48:31.856Z,94863.19
2023-01-17T13:51:07.169Z,94853.22
2023-01-17T13:53:59.055Z,94852.63
2023-01-17T13:56:37.979Z,94846.09
2023-01-17T13:59:31.888Z,94850.22
2023-01-17T14:02:36.435Z,94841.44
2023-01-17T14:05:15.180Z,94841.38
2023-01-17T14:07:55.424Z,94852.03
2023-01-17T14:10:38.445Z,94858.06
2023-01-17T14:13:33.977Z,94862.34
2023-01-17T14:16:26.831Z,94882.34
2023-01-17T14:18:59.995Z,94880.19
2023-01-17T14:21:33.614Z,94885.44
2023-01-17T14:24:17.710Z,94879.22
2023-01-17T14:26:55.769Z,94883.81
2023-01-17T14:29:58.764Z,94871.63
2023-01-17T14:32:36.037Z,94875.50
2023-01-17T14:35:23.513Z,94877.63
2023-01-17T14:37:57.940Z,94873.91
2023-01-17T14:40:35.147Z,94875.69
2023-01-17T14:43:12.969Z,94869.34
2023-01-17T14:45:46.866Z,94861.19
2023-01-17T14:48:21.882Z,94859.97
2023-01-17T14:50:58.544Z,94854.25
2023-01-17T14:53:33.162Z,94847.00
2023-01-17T14:56:16.903Z,94850.22
2023-01-17T14:58:51.701Z,94845.81
2023-01-17T15:01:24.969Z,94852.00
2023-01-17T15:03:58.492Z,94840.97
2023-01-17T15:06:38.525Z,94843.72
2023-01-17T15:09:13.610Z,94850.69
2023-01-17T15:11:49.989Z,94849.41
2023-01-17T15:14:27.250Z,94847.88
2023-01-17T15:17:10.516Z,94853.34
2023-01-17T15:19:45.047Z,94853.09
2023-01-17T15:22:19.903Z,94856.56
2023-01-17T15:24:53.433Z,94856.56
2023-01-17T15:27:28.475Z,94851.00
2023-01-17T15:30:03.906Z,94852.22
2023-01-17T15:32:37.944Z,94845.53
2023-01-17T15:35:18.428Z,94857.69
2023-01-17T15:37:55.950Z,94844.41
2023-01-17T15:40:31.217Z,94854.34
2023-01-17T15:43:06.519Z,94854.41
2023-01-17T15:45:39.586Z,94856.19
2023-01-17T15:48:40.488Z,94857.38
2023-01-17T15:51:14.363Z,94853.84
2023-01-17T15:53:47.330Z,94862.38
2023-01-17T15:56:23.713Z,94857.63
2023-01-17T15:59:22.651Z,94862.47
2023-01-17T16:01:56.630Z,94855.66
2023-01-17T16:05:38.634Z,94855.19
2023-01-17T16:08:52.774Z,94851.59
2023-01-17T16:11:25.696Z,94852.09
2023-01-17T16:13:59.962Z,94873.06
2023-01-17T16:16:33.001Z,94872.53
2023-01-17T16:19:07.131Z,94873.50
2023-01-17T16:21:40.550Z,94879.44
2023-01-17T16:24:13.533Z,94883.03
2023-01-17T16:26:46.560Z,94887.25
2023-01-17T16:29:21.087Z,94889.00
2023-01-17T16:31:54.053Z,94885.69
2023-01-17T16:34:27.025Z,94893.34
2023-01-17T16:37:00.000Z,94882.53
2023-01-17T16:39:32.980Z,94885.06
2023-01-17T16:42:06.249Z,94894.41
2023-01-17T16:44:40.635Z,94897.69
2023-01-17T16:47:13.627Z,94893.44
2023-01-17T16:49:46.685Z,94901.03
2023-01-17T16:52:19.740Z,94896.69
2023-01-17T16:54:52.817Z,94903.66
2023-01-17T16:57:25.810Z,94895.25
2023-01-17T17:00:00.235Z,94900.31
2023-01-17T17:02:33.405Z,94898.56
2023-01-17T17:05:07.807Z,94891.09
2023-01-17T17:07:44.084Z,94895.31
2023-01-17T17:10:19.430Z,94895.41
2023-01-17T17:12:52.888Z,94900.47
2023-01-17T17:15:27.311Z,94901.66
2023-01-17T17:18:00.409Z,94893.84
2023-01-17T17:20:33.450Z,94898.59
2023-01-17T17:23:06.426Z,94888.50
2023-01-17T17:25:39.807Z,94895.69
2023-01-17T17:28:12.800Z,94896.75
2023-01-17T17:30:47.203Z,94891.47
2023-01-17T17:33:20.223Z,94893.91
2023-01-17T17:35:53.234Z,94885.63
2023-01-17T17:38:26.187Z,94890.59
2023-01-17T17:41:06.693Z,94889.16
2023-01-17T17:43:41.528Z,94889.59
2023-01-17T17:46:16.536Z,94887.88
2023-01-17T17:48:50.236Z,94875.94
2023-01-17T17:51:26.720Z,94888.53
2023-01-17T17:54:01.982Z,94887.88
2023-01-17T17:56:36.744Z,94895.56
2023-01-17T17:59:13.898Z,94892.19
2023-01-17T18:01:49.032Z,94900.53
2023-01-17T18:04:22.615Z,94886.25
2023-01-17T18:06:57.992Z,94894.72
2023-01-17T18:09:30.972Z,94895.59
2023-01-17T18:12:04.036Z,94893.13
2023-01-17T18:14:37.119Z,94898.28
2023-01-17T18:17:11.455Z,94897.34
2023-01-17T18:19:46.131Z,94899.91
2023-01-17T18:22:19.303Z,94902.31
2023-01-17T18:24:52.306Z,94904.94
2023-01-17T18:27:25.401Z,94905.03
2023-01-17T18:29:58.403Z,94911.69
2023-01-17T18:32:32.833Z,94912.50
2023-01-17T18:35:06.895Z,94908.50
2023-01-17T18:37:41.130Z,94912.69
2023-01-17T18:40:14.765Z,94915.16
2023-01-17T18:42:49.806Z,94921.72
2023-01-17T18:45:22.806Z,94918.22
2023-01-17T18:47:57.130Z,94928.28
2023-01-17T18:50:30.141Z,94925.56
2023-01-17T18:53:03.181Z,94928.19
2023-01-17T18:55:36.193Z,94924.66
2023-01-17T18:58:09.262Z,94925.47
2023-01-17T19:00:42.300Z,94924.56
2023-01-17T19:03:16.859Z,94936.44
2023-01-17T19:05:49.989Z,94939.06
2023-01-17T19:08:23.068Z,94946.66
2023-01-17T19:10:56.051Z,94944.94
2023-01-17T19:13:29.039Z,94951.81
2023-01-17T19:16:03.485Z,94950.09
2023-01-17T19:18:37.922Z,94958.50
2023-01-17T19:21:13.521Z,94965.34
2023-01-17T19:23:47.251Z,94976.16
2023-01-17T19:26:22.835Z,94976.94
2023-01-17T19:28:58.666Z,94979.53
2023-01-17T19:31:35.254Z,94979.97
2023-01-17T19:34:10.308Z,94976.84
2023-01-17T19:36:43.673Z,94975.53
2023-01-17T19:39:16.674Z,94987.59
2023-01-17T19:41:50.678Z,94988.06
2023-01-17T19:44:23.809Z,94983.44
2023-01-17T19:46:57.240Z,94982.25
2023-01-17T19:49:32.209Z,94985.59
2023-01-17T19:52:05.566Z,94981.19
2023-01-17T19:54:38.588Z,94982.00
2023-01-17T19:57:11.658Z,94983.59
2023-01-17T19:59:44.607Z,94986.06
2023-01-17T20:02:18.089Z,94974.22
2023-01-17T20:04:52.462Z,94979.25
2023-01-17T20:07:25.499Z,94973.22
2023-01-17T20:09:58.599Z,94981.53
2023-01-17T20:12:32.010Z,94981.41
2023-01-17T20:15:06.080Z,94978.75
2023-01-17T20:17:39.083Z,94984.56
2023-01-17T20:20:13.955Z,94971.19
2023-01-17T20:22:47.601Z,94971.72
2023-01-17T20:25:20.639Z,94973.41
2023-01-17T20:27:54.831Z,94969.16
2023-01-17T20:30:30.533Z,94980.16
2023-01-17T20:33:03.530Z,94971.47
2023-01-17T20:35:37.888Z,94966.44
2023-01-17T20:38:11.839Z,94973.16
2023-01-17T20:40:44.846Z,94975.78
2023-01-17T20:43:17.828Z,94967.41
2023-01-17T20:45:57.317Z,94973.19
2023-01-17T20:48:30.790Z,94976.66
2023-01-17T20:51:06.967Z,94974.13
2023-01-17T20:53:42.175Z,94971.47
2023-01-17T20:56:17.260Z,94972.28
2023-01-17T20:58:51.911Z,94974.81
2023-01-17T21:01:25.055Z,94980.69
2023-01-17T21:03:58.143Z,94978.22
2023-01-17T21:06:32.743Z,94974.72
2023-01-17T21:09:07.220Z,94976.16
2023-01-17T21:11:40.285Z,94972.44
2023-01-17T21:14:13.248Z,94976.63
2023-01-17T21:16:46.436Z,94972.44
2023-01-17T21:19:23.840Z,94964.81
2023-01-17T21:21:59.064Z,94968.00
2023-01-17T21:24:32.123Z,94970.56
2023-01-17T21:27:05.363Z,94963.78
2023-01-17T21:29:38.616Z,94966.22
2023-01-17T21:32:11.664Z,94971.31
2023-01-17T21:34:44.683Z,94969.47
2023-01-17T21:37:19.131Z,94968.47
2023-01-17T21:39:54.815Z,94970.78
2023-01-17T21:42:27.947Z,94973.38
2023-01-17T21:45:00.974Z,94968.72
2023-01-17T21:47:34.055Z,94963.91
2023-01-17T21:50:07.855Z,94974.56
2023-01-17T21:52:42.225Z,94974.03
2023-01-17T21:55:32.829Z,94977.75
2023-01-17T21:58:30.940Z,94974.75
2023-01-17T22:01:15.801Z,94984.78
2023-01-17T22:03:51.761Z,94977.47
2023-01-17T22:06:28.163Z,94975.88
2023-01-17T22:09:02.496Z,94974.03
2023-01-17T22:11:37.824Z,94983.25
2023-01-17T22:14:10.853Z,94981.53
2023-01-17T22:16:43.866Z,94973.25
2023-01-17T22:19:16.896Z,94979.06
2023-01-17T22:21:49.884Z,94978.34
2023-01-17T22:24:24.294Z,94977.59
2023-01-17T22:26:57.332Z,94968.13
2023-01-17T22:29:32.451Z,94968.72
2023-01-17T22:32:06.130Z,94967.16
2023-01-17T22:34:39.168Z,94958.78
2023-01-17T22:37:12.248Z,94966.13
2023-01-17T22:39:46.658Z,94965.16
2023-01-17T22:42:19.656Z,94958.31
2023-01-17T22:44:52.638Z,94961.66
2023-01-17T22:47:25.704Z,94967.28
2023-01-17T22:49:58.685Z,94964.41
2023-01-17T22:52:32.416Z,94961.72
2023-01-17T22:55:07.754Z,94960.09
2023-01-17T22:57:40.845Z,94958.41
2023-01-17T23:00:15.476Z,94954.81
2023-01-17T23:02:48.520Z,94953.25
2023-01-17T23:05:22.854Z,94957.22
2023-01-17T23:07:55.937Z,94956.53
2023-01-17T23:10:47.891Z,94955.88
2023-01-17T23:13:21.346Z,94957.81
2023-01-17T23:16:12.268Z,94961.19
2023-01-17T23:19:02.806Z,94957.19
2023-01-17T23:21:49.962Z,94957.19
2023-01-17T23:24:23.006Z,94954.72
2023-01-17T23:27:14.906Z,94951.81
2023-01-17T23:29:47.916Z,94957.28
2023-01-17T23:32:20.906Z,94946.75
2023-01-17T23:34:54.074Z,94949.41
2023-01-17T23:37:45.339Z,94952.72
2023-01-17T23:40:19.189Z,94953.44
2023-01-17T23:43:11.391Z,94955.03
2023-01-17T23:45:44.472Z,94956.69
2023-01-17T23:48:17.844Z,94962.50
2023-01-17T23:50:51.111Z,94962.50
2023-01-17T23:53:24.268Z,94954.81
2023-01-17T23:55:59.486Z,94954.91
2023-01-17T23:58:34.290Z,94954.69
